Time;durP1;ratioP1;P1;durP2;ratioP2;P2;SDS_P1;SDS_P2;PMS_P1;PMS_P2;Temp;Humidity;BMP_temperature;BMP_pressure;BME280_temperature;BME280_humidity;BME280_pressure;Samples;Min_cycle;Max_cycle;Signal;HPM_P1;HPM_P2
2023/07/18 00:02:26;;;;;;;2.25;1.00;;;;;;;;;;5033668;28;20478;-72
2023/07/18 00:04:52;;;;;;;3.88;1.13;;;;;;;;;;5033638;28;20030;-70
2023/07/18 00:07:19;;;;;;;4.20;1.48;;;;;;;;;;5033377;28;20026;-66
2023/07/18 00:09:45;;;;;;;1.92;1.02;;;;;;;;;;5033293;28;20052;-71
2023/07/18 00:12:10;;;;;;;3.13;1.50;;;;;;;;;;5033203;28;20048;-69
2023/07/18 00:14:36;;;;;;;2.40;1.30;;;;;;;;;;5033378;28;20037;-67
2023/07/18 00:17:02;;;;;;;2.95;1.25;;;;;;;;;;5033175;28;20029;-68
2023/07/18 00:19:28;;;;;;;2.25;1.23;;;;;;;;;;5032564;28;20025;-66
2023/07/18 00:21:54;;;;;;;2.15;1.20;;;;;;;;;;5033132;28;20540;-72
2023/07/18 00:24:20;;;;;;;3.75;1.10;;;;;;;;;;5033000;28;20087;-65
2023/07/18 00:26:45;;;;;;;7.13;1.30;;;;;;;;;;5041503;28;20025;-66
2023/07/18 00:29:10;;;;;;;3.30;1.20;;;;;;;;;;5052827;28;20079;-66
2023/07/18 00:31:36;;;;;;;3.90;1.30;;;;;;;;;;5053011;28;20025;-72
2023/07/18 00:34:03;;;;;;;3.75;1.50;;;;;;;;;;5035511;28;20525;-72
2023/07/18 00:36:29;;;;;;;2.40;1.30;;;;;;;;;;5032797;28;20029;-67
2023/07/18 00:38:55;;;;;;;2.58;1.20;;;;;;;;;;5033031;28;20040;-67
2023/07/18 00:41:20;;;;;;;3.25;1.40;;;;;;;;;;5032455;28;20479;-72
2023/07/18 00:43:45;;;;;;;2.58;1.20;;;;;;;;;;5032691;28;20037;-74
2023/07/18 00:46:13;;;;;;;4.30;1.30;;;;;;;;;;5032763;28;20049;-68
2023/07/18 00:48:38;;;;;;;3.63;1.23;;;;;;;;;;5032475;28;20474;-68
2023/07/18 00:51:04;;;;;;;5.43;1.27;;;;;;;;;;5032710;28;20048;-68
2023/07/18 00:53:32;;;;;;;3.75;1.10;;;;;;;;;;5032404;28;20479;-75
2023/07/18 00:55:58;;;;;;;7.43;1.40;;;;;;;;;;5032139;28;20029;-65
2023/07/18 00:58:23;;;;;;;4.38;1.35;;;;;;;;;;5032572;28;20036;-73
2023/07/18 01:00:49;;;;;;;3.67;1.25;;;;;;;;;;5032583;28;20026;-66
2023/07/18 01:03:16;;;;;;;2.45;1.02;;;;;;;;;;5032634;28;20434;-67
2023/07/18 01:05:41;;;;;;;8.60;1.25;;;;;;;;;;5032537;28;20034;-66
2023/07/18 01:08:07;;;;;;;1.70;1.00;;;;;;;;;;5032693;28;20087;-71
2023/07/18 01:10:32;;;;;;;4.32;1.20;;;;;;;;;;5032367;28;20449;-65
2023/07/18 01:13:01;;;;;;;4.97;1.45;;;;;;;;;;5032445;28;20103;-65
2023/07/18 01:15:29;;;;;;;2.88;1.30;;;;;;;;;;5032333;28;20364;-65
2023/07/18 01:17:55;;;;;;;4.72;1.20;;;;;;;;;;5032393;28;20482;-66
2023/07/18 01:20:24;;;;;;;2.10;1.10;;;;;;;;;;5032201;28;20034;-67
2023/07/18 01:22:54;;;;;;;4.15;1.30;;;;;;;;;;5032192;28;20029;-65
2023/07/18 01:25:19;;;;;;;2.47;1.30;;;;;;;;;;5032463;28;20036;-65
2023/07/18 01:27:53;;;;;;;3.33;1.20;;;;;;;;;;5044884;28;20466;-73
2023/07/18 01:30:21;;;;;;;4.80;1.42;;;;;;;;;;5051980;28;20072;-65
2023/07/18 01:32:50;;;;;;;3.13;1.17;;;;;;;;;;5045175;28;20024;-66
2023/07/18 01:35:19;;;;;;;5.20;1.48;;;;;;;;;;5032002;28;20033;-65
2023/07/18 01:37:44;;;;;;;4.85;1.60;;;;;;;;;;5031737;28;20033;-65
2023/07/18 01:40:14;;;;;;;4.43;1.17;;;;;;;;;;5031827;28;20025;-66
2023/07/18 01:42:40;;;;;;;3.88;1.50;;;;;;;;;;5031792;28;20018;-66
2023/07/18 01:45:06;;;;;;;2.70;1.40;;;;;;;;;;5031598;28;20022;-73
2023/07/18 01:47:32;;;;;;;2.03;1.10;;;;;;;;;;5031678;28;20529;-69
2023/07/18 01:49:58;;;;;;;3.38;1.40;;;;;;;;;;5031577;28;20026;-71
2023/07/18 01:52:26;;;;;;;2.72;1.30;;;;;;;;;;5031459;28;20026;-73
2023/07/18 01:54:51;;;;;;;3.05;1.30;;;;;;;;;;5031507;28;20033;-67
2023/07/18 01:57:16;;;;;;;3.25;1.30;;;;;;;;;;5031440;28;20463;-66
2023/07/18 01:59:42;;;;;;;2.55;1.30;;;;;;;;;;5031436;28;20025;-66
2023/07/18 02:02:07;;;;;;;4.35;1.23;;;;;;;;;;5031596;28;20067;-66
2023/07/18 02:04:33;;;;;;;5.22;1.42;;;;;;;;;;5031373;28;20076;-66
2023/07/18 02:06:59;;;;;;;4.78;1.55;;;;;;;;;;5029960;28;20076;-70
2023/07/18 02:09:24;;;;;;;2.88;1.23;;;;;;;;;;5031280;28;20033;-66
2023/07/18 02:11:50;;;;;;;4.35;1.60;;;;;;;;;;5031419;28;20355;-67
2023/07/18 02:14:19;;;;;;;7.25;1.80;;;;;;;;;;5031172;28;20097;-67
2023/07/18 02:16:45;;;;;;;2.53;1.20;;;;;;;;;;5031230;28;20113;-68
2023/07/18 02:19:10;;;;;;;2.63;1.50;;;;;;;;;;5030842;28;20349;-65
2023/07/18 02:21:36;;;;;;;3.53;1.40;;;;;;;;;;5030869;28;20037;-68
2023/07/18 02:24:02;;;;;;;6.40;2.00;;;;;;;;;;5030984;28;20028;-66
2023/07/18 02:26:27;;;;;;;4.22;1.60;;;;;;;;;;5032743;28;20029;-66
2023/07/18 02:28:54;;;;;;;6.47;1.58;;;;;;;;;;5050788;28;20017;-72
2023/07/18 02:31:19;;;;;;;6.07;1.80;;;;;;;;;;5050817;28;20089;-73
2023/07/18 02:33:44;;;;;;;4.20;1.65;;;;;;;;;;5037322;28;20417;-73
2023/07/18 02:36:12;;;;;;;6.72;1.50;;;;;;;;;;5030307;28;20021;-67
2023/07/18 02:38:37;;;;;;;5.63;1.65;;;;;;;;;;5030869;28;20021;-67
2023/07/18 02:41:03;;;;;;;7.70;1.67;;;;;;;;;;5030897;28;20210;-66
2023/07/18 02:43:28;;;;;;;7.75;1.65;;;;;;;;;;5030709;28;20030;-70
2023/07/18 02:45:53;;;;;;;3.70;1.63;;;;;;;;;;5030651;28;20029;-69
2023/07/18 02:48:19;;;;;;;6.88;1.70;;;;;;;;;;5030519;28;20038;-71
2023/07/18 02:50:44;;;;;;;3.90;1.70;;;;;;;;;;5030391;28;20032;-66
2023/07/18 02:53:10;;;;;;;8.48;1.73;;;;;;;;;;5030537;28;20123;-71
2023/07/18 02:55:35;;;;;;;2.50;1.50;;;;;;;;;;5030420;28;20025;-65
2023/07/18 02:58:01;;;;;;;5.60;1.95;;;;;;;;;;5030483;28;20036;-75
2023/07/18 03:00:26;;;;;;;4.72;1.80;;;;;;;;;;5030541;28;20029;-65
2023/07/18 03:02:52;;;;;;;7.28;2.50;;;;;;;;;;5030480;28;20022;-72
2023/07/18 03:05:19;;;;;;;3.47;1.80;;;;;;;;;;5030208;28;20120;-74
2023/07/18 03:07:46;;;;;;;3.78;1.70;;;;;;;;;;5030424;28;20091;-72
2023/07/18 03:10:13;;;;;;;4.28;1.90;;;;;;;;;;5030340;28;20080;-66
2023/07/18 03:12:40;;;;;;;6.05;1.70;;;;;;;;;;5030346;28;20100;-65
2023/07/18 03:15:09;;;;;;;3.05;1.80;;;;;;;;;;5030244;28;20112;-67
2023/07/18 03:17:36;;;;;;;3.63;1.90;;;;;;;;;;5031626;28;20467;-65
2023/07/18 03:20:11;;;;;;;6.72;1.95;;;;;;;;;;5034160;28;20108;-65
2023/07/18 03:22:37;;;;;;;6.60;2.28;;;;;;;;;;5034423;28;20489;-65
2023/07/18 03:25:07;;;;;;;3.92;1.73;;;;;;;;;;5032877;28;20120;-72
2023/07/18 03:27:32;;;;;;;7.07;2.10;;;;;;;;;;5040747;28;20368;-73
2023/07/18 03:29:58;;;;;;;5.03;1.80;;;;;;;;;;5054454;28;20071;-66
2023/07/18 03:32:24;;;;;;;4.38;1.77;;;;;;;;;;5051880;28;20044;-69
2023/07/18 03:34:50;;;;;;;3.85;2.00;;;;;;;;;;5033843;28;20025;-70
2023/07/18 03:37:15;;;;;;;5.43;1.70;;;;;;;;;;5034103;28;20079;-66
2023/07/18 03:39:41;;;;;;;5.22;2.25;;;;;;;;;;5034083;28;20032;-66
2023/07/18 03:42:06;;;;;;;5.47;2.67;;;;;;;;;;5033940;28;20028;-65
2023/07/18 03:44:32;;;;;;;4.82;2.20;;;;;;;;;;5033884;28;20467;-65
2023/07/18 03:46:57;;;;;;;5.43;1.80;;;;;;;;;;5034118;28;20048;-71
2023/07/18 03:49:23;;;;;;;9.18;3.03;;;;;;;;;;5033966;28;20107;-65
2023/07/18 03:51:48;;;;;;;3.88;1.88;;;;;;;;;;5034045;28;20160;-66
2023/07/18 03:54:14;;;;;;;6.20;1.95;;;;;;;;;;5033927;28;20095;-67
2023/07/18 03:56:40;;;;;;;5.63;2.08;;;;;;;;;;5033831;28;20025;-73
2023/07/18 03:59:05;;;;;;;6.45;1.90;;;;;;;;;;5033797;28;20451;-66
2023/07/18 04:01:30;;;;;;;4.05;1.73;;;;;;;;;;5034126;28;20021;-73
2023/07/18 04:03:56;;;;;;;3.95;1.95;;;;;;;;;;5033539;28;20028;-69
2023/07/18 04:06:21;;;;;;;3.22;1.67;;;;;;;;;;5033750;28;20045;-71
2023/07/18 04:08:47;;;;;;;4.35;1.90;;;;;;;;;;5033660;28;20437;-68
2023/07/18 04:11:12;;;;;;;13.77;3.33;;;;;;;;;;5033350;28;20029;-73
2023/07/18 04:13:38;;;;;;;5.05;1.90;;;;;;;;;;5033588;28;20112;-65
2023/07/18 04:16:05;;;;;;;3.60;1.60;;;;;;;;;;5033580;28;20027;-67
2023/07/18 04:18:30;;;;;;;3.95;1.90;;;;;;;;;;5033195;28;20497;-75
2023/07/18 04:21:01;;;;;;;3.05;1.95;;;;;;;;;;5033324;28;20033;-65
2023/07/18 04:23:26;;;;;;;;;;;;;;;;;;5033838;28;20033;-66
2023/07/18 04:25:57;;;;;;;4.43;1.90;;;;;;;;;;5033062;28;19920;-66
2023/07/18 04:28:23;;;;;;;5.03;1.85;;;;;;;;;;5045324;28;20086;-67
2023/07/18 04:30:49;;;;;;;3.03;1.90;;;;;;;;;;5052424;28;20104;-65
2023/07/18 04:33:14;;;;;;;4.88;2.05;;;;;;;;;;5043548;28;20486;-66
2023/07/18 04:35:40;;;;;;;7.38;2.08;;;;;;;;;;5032958;28;20017;-75
2023/07/18 04:38:06;;;;;;;7.13;2.20;;;;;;;;;;5032938;28;20025;-65
2023/07/18 04:40:31;;;;;;;4.20;2.30;;;;;;;;;;5033085;28;20021;-70
2023/07/18 04:42:57;;;;;;;4.88;2.08;;;;;;;;;;5032834;28;20409;-66
2023/07/18 04:45:22;;;;;;;3.53;2.00;;;;;;;;;;5032880;28;20425;-74
2023/07/18 04:47:47;;;;;;;4.90;2.10;;;;;;;;;;5032439;28;20115;-70
2023/07/18 04:50:13;;;;;;;4.45;2.17;;;;;;;;;;5032587;28;20044;-66
2023/07/18 04:52:38;;;;;;;5.88;1.90;;;;;;;;;;5032786;28;20036;-66
2023/07/18 04:55:04;;;;;;;4.03;1.98;;;;;;;;;;5032603;28;20380;-67
2023/07/18 04:57:30;;;;;;;7.93;2.45;;;;;;;;;;5032476;28;20053;-66
2023/07/18 04:59:55;;;;;;;4.32;1.95;;;;;;;;;;5032732;28;20030;-67
2023/07/18 05:02:21;;;;;;;5.72;2.20;;;;;;;;;;5032492;28;20412;-66
2023/07/18 05:04:46;;;;;;;6.28;2.30;;;;;;;;;;5032732;28;20394;-66
2023/07/18 05:07:13;;;;;;;5.25;2.25;;;;;;;;;;5032413;28;20029;-65
2023/07/18 05:09:38;;;;;;;8.68;2.42;;;;;;;;;;5033720;28;20025;-66
2023/07/18 05:12:04;;;;;;;4.50;2.10;;;;;;;;;;5024004;28;20022;-66
2023/07/18 05:14:30;;;;;;;3.88;2.00;;;;;;;;;;5014793;28;20479;-66
2023/07/18 05:16:55;;;;;;;5.65;2.58;;;;;;;;;;5021285;28;20028;-66
2023/07/18 05:19:21;;;;;;;6.05;2.30;;;;;;;;;;5033991;28;20029;-67
2023/07/18 05:21:46;;;;;;;5.65;2.53;;;;;;;;;;5034033;28;20076;-67
2023/07/18 05:24:12;;;;;;;4.15;2.10;;;;;;;;;;5034016;28;20036;-66
2023/07/18 05:26:37;;;;;;;5.55;2.00;;;;;;;;;;5034247;28;20028;-66
2023/07/18 05:29:02;;;;;;;8.30;2.15;;;;;;;;;;5043775;28;20029;-66
2023/07/18 05:31:28;;;;;;;6.22;2.20;;;;;;;;;;5036520;28;20027;-67
2023/07/18 05:33:53;;;;;;;5.68;2.15;;;;;;;;;;5040275;28;20152;-66
2023/07/18 05:36:19;;;;;;;6.45;2.22;;;;;;;;;;5043832;28;20056;-66
2023/07/18 05:38:47;;;;;;;6.75;2.25;;;;;;;;;;5043913;28;20032;-66
2023/07/18 05:41:13;;;;;;;7.32;2.10;;;;;;;;;;5042888;28;20025;-68
2023/07/18 05:43:38;;;;;;;4.20;2.13;;;;;;;;;;5044213;28;20551;-65
2023/07/18 05:46:04;;;;;;;4.68;2.20;;;;;;;;;;5036062;28;20029;-66
2023/07/18 05:48:30;;;;;;;6.50;2.30;;;;;;;;;;5033596;28;20045;-65
2023/07/18 05:50:56;;;;;;;3.97;1.90;;;;;;;;;;5033601;28;20072;-65
2023/07/18 05:53:21;;;;;;;5.60;2.05;;;;;;;;;;5033647;28;20057;-72
2023/07/18 05:55:46;;;;;;;10.43;2.60;;;;;;;;;;5033639;28;20485;-65
2023/07/18 05:58:12;;;;;;;4.97;1.95;;;;;;;;;;5033504;28;20028;-73
2023/07/18 06:00:39;;;;;;;6.63;2.42;;;;;;;;;;5033207;28;20067;-66
2023/07/18 06:03:04;;;;;;;7.88;2.13;;;;;;;;;;5033511;28;20033;-65
2023/07/18 06:05:30;;;;;;;5.32;2.10;;;;;;;;;;5033304;28;20030;-65
2023/07/18 06:07:55;;;;;;;5.25;2.15;;;;;;;;;;5033376;28;20036;-69
2023/07/18 06:10:20;;;;;;;6.82;2.97;;;;;;;;;;5033134;28;20120;-65
2023/07/18 06:12:46;;;;;;;4.80;2.17;;;;;;;;;;5032808;28;20029;-65
2023/07/18 06:15:11;;;;;;;5.43;2.33;;;;;;;;;;5032806;28;20480;-67
2023/07/18 06:17:37;;;;;;;5.78;2.30;;;;;;;;;;5032658;28;20045;-67
2023/07/18 06:20:14;;;;;;;10.35;2.40;;;;;;;;;;5032999;28;20025;-73
2023/07/18 06:22:41;;;;;;;7.10;3.08;;;;;;;;;;5033166;28;20104;-69
2023/07/18 06:25:07;;;;;;;4.18;2.03;;;;;;;;;;5033511;28;20120;-74
2023/07/18 06:27:33;;;;;;;7.25;2.55;;;;;;;;;;5042518;28;20095;-65
2023/07/18 06:29:59;;;;;;;8.18;2.50;;;;;;;;;;5044664;28;20048;-64
2023/07/18 06:32:25;;;;;;;8.05;2.53;;;;;;;;;;5047113;28;20043;-72
2023/07/18 06:34:50;;;;;;;5.40;2.17;;;;;;;;;;5052641;28;20020;-67
2023/07/18 06:37:16;;;;;;;8.55;2.30;;;;;;;;;;5036517;28;20031;-74
2023/07/18 06:39:41;;;;;;;9.68;2.53;;;;;;;;;;5032808;28;20056;-75
2023/07/18 06:42:10;;;;;;;6.13;2.50;;;;;;;;;;5032391;28;20018;-71
2023/07/18 06:44:36;;;;;;;15.43;3.70;;;;;;;;;;5032675;28;20042;-70
2023/07/18 06:47:03;;;;;;;25.58;6.60;;;;;;;;;;5031137;28;20026;-73
2023/07/18 06:49:28;;;;;;;27.67;4.40;;;;;;;;;;5032452;28;20376;-67
2023/07/18 06:51:53;;;;;;;16.02;3.67;;;;;;;;;;5032125;28;20057;-66
2023/07/18 06:54:19;;;;;;;9.88;3.67;;;;;;;;;;5032461;28;20086;-66
2023/07/18 06:56:45;;;;;;;7.90;2.33;;;;;;;;;;5032479;28;20100;-68
2023/07/18 06:59:11;;;;;;;9.73;2.70;;;;;;;;;;5032378;28;20487;-66
2023/07/18 07:01:36;;;;;;;7.28;2.38;;;;;;;;;;5032328;28;20053;-66
2023/07/18 07:04:02;;;;;;;6.05;2.13;;;;;;;;;;5032273;28;20021;-66
2023/07/18 07:06:28;;;;;;;9.93;2.65;;;;;;;;;;5032154;28;20030;-69
2023/07/18 07:08:53;;;;;;;6.70;2.65;;;;;;;;;;5032412;28;20021;-67
2023/07/18 07:11:19;;;;;;;8.82;2.70;;;;;;;;;;5031974;28;20449;-67
2023/07/18 07:13:45;;;;;;;6.57;2.10;;;;;;;;;;5032029;28;20022;-66
2023/07/18 07:16:10;;;;;;;7.15;2.58;;;;;;;;;;5036276;28;20033;-71
2023/07/18 07:18:36;;;;;;;9.77;3.03;;;;;;;;;;5042823;28;20504;-74
2023/07/18 07:21:01;;;;;;;11.13;2.47;;;;;;;;;;5046596;28;20071;-67
2023/07/18 07:23:28;;;;;;;7.65;2.70;;;;;;;;;;5052343;28;20506;-66
2023/07/18 07:25:54;;;;;;;11.95;2.40;;;;;;;;;;5052109;28;20356;-72
2023/07/18 07:28:22;;;;;;;7.95;2.40;;;;;;;;;;5052069;28;20029;-68
2023/07/18 07:30:48;;;;;;;8.00;2.38;;;;;;;;;;5051938;28;20116;-66
2023/07/18 07:33:14;;;;;;;5.40;2.22;;;;;;;;;;5052058;28;20032;-69
2023/07/18 07:35:39;;;;;;;5.13;2.33;;;;;;;;;;5052000;28;20382;-69
2023/07/18 07:38:06;;;;;;;5.32;2.17;;;;;;;;;;5046752;28;20112;-66
2023/07/18 07:40:31;;;;;;;12.00;3.50;;;;;;;;;;5042386;28;20029;-66
2023/07/18 07:42:57;;;;;;;38.83;8.30;;;;;;;;;;5036941;28;20062;-71
2023/07/18 07:45:22;;;;;;;18.95;4.93;;;;;;;;;;5032087;28;20037;-67
2023/07/18 07:47:48;;;;;;;16.05;4.53;;;;;;;;;;5032000;28;20037;-72
2023/07/18 07:50:14;;;;;;;9.10;3.53;;;;;;;;;;5031750;28;20112;-74
2023/07/18 07:52:39;;;;;;;10.88;3.40;;;;;;;;;;5032034;28;20076;-72
2023/07/18 07:55:06;;;;;;;8.30;2.20;;;;;;;;;;5031718;28;20493;-73
2023/07/18 07:57:31;;;;;;;7.28;2.83;;;;;;;;;;5031972;28;20158;-66
2023/07/18 07:59:57;;;;;;;9.48;2.38;;;;;;;;;;5032030;28;20053;-70
2023/07/18 08:02:22;;;;;;;5.63;2.45;;;;;;;;;;5031782;28;20041;-68
2023/07/18 08:04:48;;;;;;;8.48;2.20;;;;;;;;;;5034901;28;20377;-74
2023/07/18 08:07:15;;;;;;;8.43;2.40;;;;;;;;;;5035566;28;20025;-69
2023/07/18 08:09:41;;;;;;;3.97;1.83;;;;;;;;;;5035352;28;20029;-74
2023/07/18 08:12:07;;;;;;;6.13;2.00;;;;;;;;;;5035491;28;20064;-74
2023/07/18 08:14:34;;;;;;;5.47;1.90;;;;;;;;;;5035210;28;20061;-68
2023/07/18 08:17:01;;;;;;;3.22;1.67;;;;;;;;;;5035258;28;20466;-68
2023/07/18 08:19:27;;;;;;;4.63;2.10;;;;;;;;;;5035210;28;20090;-73
2023/07/18 08:21:53;;;;;;;5.75;2.17;;;;;;;;;;5035468;28;20017;-72
2023/07/18 08:24:19;;;;;;;5.25;2.10;;;;;;;;;;5035095;28;20120;-71
2023/07/18 08:26:45;;;;;;;4.03;1.73;;;;;;;;;;5035270;28;20540;-70
2023/07/18 08:29:10;;;;;;;5.28;2.00;;;;;;;;;;5035096;28;20021;-73
2023/07/18 08:31:35;;;;;;;6.32;2.10;;;;;;;;;;5051542;28;20123;-66
2023/07/18 08:34:01;;;;;;;3.75;1.92;;;;;;;;;;5054733;28;20039;-66
2023/07/18 08:36:27;;;;;;;4.47;1.95;;;;;;;;;;5054910;28;20036;-67
2023/07/18 08:38:53;;;;;;;5.72;2.20;;;;;;;;;;5054668;28;20035;-71
2023/07/18 08:41:21;;;;;;;6.03;2.20;;;;;;;;;;5053215;28;20029;-66
2023/07/18 08:43:48;;;;;;;5.95;2.20;;;;;;;;;;5034937;28;20025;-66
2023/07/18 08:46:14;;;;;;;5.03;2.05;;;;;;;;;;5035210;28;20450;-66
2023/07/18 08:48:47;;;;;;;3.92;1.65;;;;;;;;;;5034806;28;20124;-74
2023/07/18 08:51:13;;;;;;;7.57;1.95;;;;;;;;;;5034598;28;20037;-67
2023/07/18 08:53:39;;;;;;;5.88;1.85;;;;;;;;;;5034451;28;20028;-68
2023/07/18 08:56:08;;;;;;;5.13;1.70;;;;;;;;;;5034779;28;20021;-67
2023/07/18 08:58:36;;;;;;;6.22;1.90;;;;;;;;;;5034730;28;20036;-75
2023/07/18 09:01:01;;;;;;;4.85;1.48;;;;;;;;;;5034585;28;20463;-66
2023/07/18 09:03:27;;;;;;;3.95;1.77;;;;;;;;;;5034462;28;20111;-74
2023/07/18 09:05:52;;;;;;;6.00;2.10;;;;;;;;;;5034573;28;20021;-74
2023/07/18 09:08:18;;;;;;;6.78;2.40;;;;;;;;;;5034278;28;20366;-74
2023/07/18 09:10:45;;;;;;;5.22;1.90;;;;;;;;;;5034452;28;20032;-74
2023/07/18 09:13:11;;;;;;;3.70;1.50;;;;;;;;;;5034374;28;20355;-72
2023/07/18 09:15:37;;;;;;;3.70;1.70;;;;;;;;;;5013914;28;20045;-73
2023/07/18 09:18:08;;;;;;;7.47;2.22;;;;;;;;;;5014515;28;20041;-75
2023/07/18 09:20:34;;;;;;;5.68;1.92;;;;;;;;;;5028380;28;20036;-74
2023/07/18 09:23:04;;;;;;;6.07;2.20;;;;;;;;;;5033948;28;20421;-73
2023/07/18 09:25:29;;;;;;;6.88;2.00;;;;;;;;;;5034166;28;20029;-72
2023/07/18 09:27:57;;;;;;;4.43;1.70;;;;;;;;;;5034018;28;20416;-74
2023/07/18 09:30:33;;;;;;;5.72;1.77;;;;;;;;;;5033852;28;20427;-72
2023/07/18 09:32:58;;;;;;;5.97;2.05;;;;;;;;;;5014364;28;20030;-75
2023/07/18 09:35:27;;;;;;;6.30;1.55;;;;;;;;;;5014177;28;20490;-74
2023/07/18 09:37:53;;;;;;;6.53;1.65;;;;;;;;;;5015998;28;20084;-73
2023/07/18 09:40:18;;;;;;;4.53;1.80;;;;;;;;;;5014999;28;20121;-75
2023/07/18 09:42:47;;;;;;;4.88;1.70;;;;;;;;;;5027901;28;20104;-70
2023/07/18 09:45:14;;;;;;;4.07;1.60;;;;;;;;;;5034987;28;20034;-76
2023/07/18 09:47:41;;;;;;;9.35;2.10;;;;;;;;;;5033634;28;20044;-74
2023/07/18 09:50:10;;;;;;;4.50;1.77;;;;;;;;;;5033459;28;20030;-70
2023/07/18 09:52:40;;;;;;;5.45;1.80;;;;;;;;;;5033652;28;20348;-69
2023/07/18 09:55:11;;;;;;;5.13;1.90;;;;;;;;;;5034988;28;20041;-74
2023/07/18 09:57:40;;;;;;;4.65;1.60;;;;;;;;;;5033472;28;20033;-71
2023/07/18 10:00:09;;;;;;;4.88;1.42;;;;;;;;;;5033923;28;20510;-67
2023/07/18 10:02:34;;;;;;;5.55;1.60;;;;;;;;;;5053516;28;20095;-74
2023/07/18 10:05:04;;;;;;;3.75;1.60;;;;;;;;;;5040516;28;20482;-73
2023/07/18 10:07:34;;;;;;;5.50;1.90;;;;;;;;;;5033337;28;20378;-74
2023/07/18 10:10:01;;;;;;;5.43;1.60;;;;;;;;;;5033170;28;20382;-74
2023/07/18 10:12:26;;;;;;;4.38;1.80;;;;;;;;;;5033380;28;20128;-74
2023/07/18 10:15:00;;;;;;;2.78;1.48;;;;;;;;;;5031759;28;20029;-75
2023/07/18 10:17:27;;;;;;;6.05;1.42;;;;;;;;;;5033239;28;20112;-75
2023/07/18 10:19:53;;;;;;;5.30;1.52;;;;;;;;;;5032896;28;20367;-74
2023/07/18 10:22:29;;;;;;;2.47;1.48;;;;;;;;;;5033107;28;20036;-74
2023/07/18 10:25:06;;;;;;;3.58;1.60;;;;;;;;;;5033054;28;20124;-75
2023/07/18 10:27:37;;;;;;;4.63;1.70;;;;;;;;;;5031932;28;20033;-75
2023/07/18 10:30:05;;;;;;;3.95;1.80;;;;;;;;;;5032643;28;20075;-71
2023/07/18 10:32:32;;;;;;;3.05;1.40;;;;;;;;;;5041354;28;20051;-68
2023/07/18 10:34:58;;;;;;;3.08;1.60;;;;;;;;;;5052518;28;20498;-68
2023/07/18 10:37:26;;;;;;;3.80;1.45;;;;;;;;;;5052824;28;20057;-64
2023/07/18 10:39:53;;;;;;;3.92;1.30;;;;;;;;;;5052793;28;20021;-67
2023/07/18 10:42:21;;;;;;;5.78;1.30;;;;;;;;;;5042493;28;20075;-66
2023/07/18 10:44:48;;;;;;;3.72;1.50;;;;;;;;;;5032762;28;20033;-70
2023/07/18 10:47:15;;;;;;;5.65;1.80;;;;;;;;;;5032326;28;20430;-69
2023/07/18 10:49:42;;;;;;;2.90;1.40;;;;;;;;;;5032343;28;20091;-73
2023/07/18 10:52:07;;;;;;;4.85;1.80;;;;;;;;;;5032457;28;20041;-67
2023/07/18 10:54:33;;;;;;;5.85;1.73;;;;;;;;;;5032649;28;20029;-72
2023/07/18 10:56:59;;;;;;;5.13;1.40;;;;;;;;;;5032560;28;20025;-69
2023/07/18 10:59:24;;;;;;;2.40;1.23;;;;;;;;;;5032362;28;20026;-74
2023/07/18 11:01:50;;;;;;;3.95;1.30;;;;;;;;;;5032537;28;20028;-72
2023/07/18 11:04:15;;;;;;;2.55;1.42;;;;;;;;;;5032164;28;20368;-71
2023/07/18 11:06:53;;;;;;;4.50;1.60;;;;;;;;;;5032493;28;20025;-74
2023/07/18 11:09:18;;;;;;;4.13;1.50;;;;;;;;;;5032341;28;20021;-72
2023/07/18 11:11:44;;;;;;;3.08;1.30;;;;;;;;;;5032430;28;20043;-74
2023/07/18 11:14:09;;;;;;;3.05;1.40;;;;;;;;;;5032108;28;20040;-74
2023/07/18 11:16:36;;;;;;;4.55;1.38;;;;;;;;;;5032404;28;20108;-74
2023/07/18 11:19:05;;;;;;;4.50;1.60;;;;;;;;;;5031982;28;20049;-72
2023/07/18 11:21:32;;;;;;;3.55;1.30;;;;;;;;;;5032382;28;20032;-74
2023/07/18 11:23:59;;;;;;;5.00;1.25;;;;;;;;;;5032305;28;20033;-73
2023/07/18 11:26:24;;;;;;;4.05;1.48;;;;;;;;;;5032188;28;20064;-74
2023/07/18 11:28:52;;;;;;;4.13;1.50;;;;;;;;;;5032317;28;20040;-68
2023/07/18 11:31:25;;;;;;;2.20;1.15;;;;;;;;;;5032234;28;20109;-73
2023/07/18 11:33:56;;;;;;;4.82;1.73;;;;;;;;;;5045979;28;20032;-71
2023/07/18 11:36:22;;;;;;;2.60;1.30;;;;;;;;;;5052030;28;20486;-71
2023/07/18 11:38:50;;;;;;;2.90;1.20;;;;;;;;;;5053749;28;20117;-74
2023/07/18 11:41:36;;;;;;;3.63;1.15;;;;;;;;;;5054850;28;20450;-70
2023/07/18 11:44:03;;;;;;;4.72;1.20;;;;;;;;;;5036159;28;20470;-73
2023/07/18 11:46:39;;;;;;;4.93;1.42;;;;;;;;;;5036045;28;20034;-71
2023/07/18 11:49:05;;;;;;;3.75;1.30;;;;;;;;;;5034502;28;20159;-68
2023/07/18 11:51:32;;;;;;;2.92;1.23;;;;;;;;;;5035903;28;20087;-68
2023/07/18 11:53:59;;;;;;;3.40;1.48;;;;;;;;;;5035864;28;20134;-65
2023/07/18 11:56:24;;;;;;;5.25;1.30;;;;;;;;;;5035874;28;20095;-72
2023/07/18 11:58:50;;;;;;;5.10;1.40;;;;;;;;;;5034546;28;20025;-69
2023/07/18 12:01:15;;;;;;;4.72;1.35;;;;;;;;;;5035601;28;20025;-69
2023/07/18 12:03:40;;;;;;;2.50;1.15;;;;;;;;;;5035946;28;20509;-68
2023/07/18 12:06:06;;;;;;;2.60;1.35;;;;;;;;;;5035495;28;20398;-71
2023/07/18 12:08:31;;;;;;;2.08;1.10;;;;;;;;;;5036011;28;20040;-73
2023/07/18 12:10:57;;;;;;;4.60;1.55;;;;;;;;;;5035564;28;20057;-70
2023/07/18 12:13:22;;;;;;;2.45;1.00;;;;;;;;;;5035434;28;20432;-66
2023/07/18 12:15:48;;;;;;;2.40;1.08;;;;;;;;;;5035318;28;20112;-69
2023/07/18 12:18:13;;;;;;;3.90;1.20;;;;;;;;;;5035475;28;20116;-67
2023/07/18 12:20:39;;;;;;;3.40;1.17;;;;;;;;;;5035456;28;20021;-67
2023/07/18 12:23:04;;;;;;;4.13;2.10;;;;;;;;;;5035224;28;20022;-66
2023/07/18 12:25:31;;;;;;;3.45;1.20;;;;;;;;;;5035407;28;20057;-73
2023/07/18 12:28:00;;;;;;;3.08;1.13;;;;;;;;;;5066614;28;20040;-73
2023/07/18 12:30:30;;;;;;;4.20;1.20;;;;;;;;;;5033601;28;20107;-75
2023/07/18 12:32:56;;;;;;;3.85;1.23;;;;;;;;;;5041127;28;20025;-69
2023/07/18 12:35:22;;;;;;;7.55;1.33;;;;;;;;;;5055182;28;20033;-72
2023/07/18 12:37:47;;;;;;;3.55;1.20;;;;;;;;;;5054867;28;20055;-72
2023/07/18 12:40:13;;;;;;;5.95;1.40;;;;;;;;;;5054496;28;20017;-73
2023/07/18 12:42:38;;;;;;;3.75;1.33;;;;;;;;;;5042309;28;20103;-72
2023/07/18 12:45:04;;;;;;;4.03;1.15;;;;;;;;;;5034440;28;20061;-71
2023/07/18 12:47:30;;;;;;;11.38;2.65;;;;;;;;;;5034762;28;20048;-69
2023/07/18 12:49:55;;;;;;;37.05;6.25;;;;;;;;;;5039135;28;20147;-75
2023/07/18 12:52:21;;;;;;;40.28;7.45;;;;;;;;;;5044100;28;20036;-74
2023/07/18 12:54:46;;;;;;;24.75;5.90;;;;;;;;;;5043424;28;21239;-75
2023/07/18 12:57:11;;;;;;;20.52;4.55;;;;;;;;;;5045074;28;20058;-75
2023/07/18 12:59:37;;;;;;;11.10;2.65;;;;;;;;;;5043574;28;20025;-74
2023/07/18 13:02:03;;;;;;;19.55;4.43;;;;;;;;;;5043695;28;20128;-74
2023/07/18 13:04:29;;;;;;;13.27;2.72;;;;;;;;;;5044888;28;20422;-72
2023/07/18 13:06:54;;;;;;;7.55;2.03;;;;;;;;;;5043365;28;20067;-72
2023/07/18 13:09:20;;;;;;;8.40;1.80;;;;;;;;;;5034337;28;20079;-73
2023/07/18 13:11:46;;;;;;;7.65;1.67;;;;;;;;;;5033202;28;20455;-67
2023/07/18 13:14:16;;;;;;;4.32;1.60;;;;;;;;;;5033874;28;20104;-73
2023/07/18 13:16:42;;;;;;;5.90;1.20;;;;;;;;;;5053122;28;20044;-74
2023/07/18 13:19:07;;;;;;;4.70;1.30;;;;;;;;;;5051766;28;20025;-73
2023/07/18 13:21:34;;;;;;;1.95;1.23;;;;;;;;;;5034291;28;20032;-73
2023/07/18 13:23:59;;;;;;;2.10;0.95;;;;;;;;;;5034007;28;20064;-72
2023/07/18 13:26:24;;;;;;;3.30;1.30;;;;;;;;;;5033995;28;20037;-72
2023/07/18 13:28:50;;;;;;;4.85;1.13;;;;;;;;;;5033794;28;20033;-72
2023/07/18 13:31:15;;;;;;;3.45;1.25;;;;;;;;;;5033735;28;20030;-73
2023/07/18 13:33:42;;;;;;;6.15;1.38;;;;;;;;;;5039537;28;20025;-72
2023/07/18 13:36:08;;;;;;;10.27;1.40;;;;;;;;;;5053642;28;20044;-70
2023/07/18 13:38:33;;;;;;;4.43;1.40;;;;;;;;;;5053849;28;20029;-72
2023/07/18 13:41:02;;;;;;;4.53;1.30;;;;;;;;;;5053684;28;20037;-72
2023/07/18 13:43:28;;;;;;;6.13;1.15;;;;;;;;;;5034053;28;20026;-73
2023/07/18 13:45:54;;;;;;;5.22;1.27;;;;;;;;;;5033631;28;20052;-74
2023/07/18 13:48:20;;;;;;;2.83;1.10;;;;;;;;;;5033346;28;20053;-73
2023/07/18 13:50:45;;;;;;;2.67;1.20;;;;;;;;;;5033630;28;20059;-74
2023/07/18 13:53:11;;;;;;;3.08;1.20;;;;;;;;;;5032912;28;20065;-73
2023/07/18 13:55:36;;;;;;;2.80;1.08;;;;;;;;;;5041934;28;20066;-73
2023/07/18 13:58:02;;;;;;;3.45;1.00;;;;;;;;;;5041000;28;20105;-70
2023/07/18 14:00:27;;;;;;;3.17;1.20;;;;;;;;;;5051316;28;20033;-72
2023/07/18 14:02:52;;;;;;;1.55;1.00;;;;;;;;;;5034754;28;20022;-73
2023/07/18 14:05:18;;;;;;;4.35;1.40;;;;;;;;;;5037508;28;20032;-71
2023/07/18 14:07:43;;;;;;;2.45;1.00;;;;;;;;;;5037282;28;20079;-73
2023/07/18 14:10:09;;;;;;;4.03;1.20;;;;;;;;;;5032635;28;20032;-72
2023/07/18 14:12:34;;;;;;;3.65;1.20;;;;;;;;;;5032919;28;20021;-74
2023/07/18 14:15:00;;;;;;;2.50;1.00;;;;;;;;;;5032926;28;20438;-74
2023/07/18 14:17:25;;;;;;;3.50;1.25;;;;;;;;;;5033024;28;20033;-74
2023/07/18 14:19:51;;;;;;;3.38;1.20;;;;;;;;;;5032820;28;20022;-73
2023/07/18 14:22:18;;;;;;;4.05;1.20;;;;;;;;;;5032885;28;20510;-67
2023/07/18 14:24:44;;;;;;;3.45;1.05;;;;;;;;;;5032923;28;20116;-73
2023/07/18 14:27:09;;;;;;;3.25;1.58;;;;;;;;;;5032178;28;20108;-65
2023/07/18 14:29:35;;;;;;;4.50;1.40;;;;;;;;;;5032343;28;20032;-65
2023/07/18 14:32:00;;;;;;;3.47;1.20;;;;;;;;;;5032781;28;20021;-65
2023/07/18 14:34:26;;;;;;;3.58;1.17;;;;;;;;;;5039339;28;20032;-66
2023/07/18 14:36:51;;;;;;;3.85;1.63;;;;;;;;;;5052613;28;20033;-67
2023/07/18 14:39:17;;;;;;;4.55;1.30;;;;;;;;;;5051302;28;20074;-66